createdAt,value
2023-05-20T00:01:24.492Z,102007.31
2023-05-20T00:06:27.254Z,102026.53
2023-05-20T00:11:32.151Z,102033.97
2023-05-20T00:16:34.902Z,102030.94
2023-05-20T00:21:37.688Z,101968.16
2023-05-20T00:26:42.365Z,102030.56
2023-05-20T00:31:45.163Z,101950.09
2023-05-20T00:36:47.869Z,102029.88
2023-05-20T00:41:54.207Z,102025.13
2023-05-20T00:46:57.440Z,102004.19
2023-05-20T00:52:00.208Z,102020.72
2023-05-20T00:57:05.179Z,101963.91
2023-05-20T01:02:08.086Z,102022.56
2023-05-20T01:07:11.450Z,102021.00
2023-05-20T01:12:22.194Z,101993.78
2023-05-20T01:17:27.409Z,101989.56
2023-05-20T01:22:32.706Z,102026.31
2023-05-20T01:27:35.822Z,101904.63
2023-05-20T01:32:42.484Z,102032.69
2023-05-20T01:37:48.243Z,101965.94
2023-05-20T01:42:55.257Z,101942.28
2023-05-20T01:47:58.370Z,102024.94
2023-05-20T01:53:03.085Z,102026.06
2023-05-20T01:58:06.298Z,102022.44
2023-05-20T02:03:09.324Z,102013.31
2023-05-20T02:08:13.459Z,101904.69
2023-05-20T02:13:16.285Z,101815.03
2023-05-20T02:18:19.571Z,102007.03
2023-05-20T02:23:25.173Z,102014.06
2023-05-20T02:28:27.984Z,101997.13
2023-05-20T02:33:31.418Z,101997.34
2023-05-20T02:38:35.646Z,101999.03
2023-05-20T02:43:40.559Z,101994.88
2023-05-20T02:48:43.272Z,101977.91
2023-05-20T02:53:47.965Z,101993.03
2023-05-20T02:58:51.395Z,101968.03
2023-05-20T03:03:54.487Z,101882.00
2023-05-20T03:09:01.508Z,101978.31
2023-05-20T03:14:05.787Z,101978.50
2023-05-20T03:19:10.243Z,101987.16
2023-05-20T03:24:14.559Z,101964.09
2023-05-20T03:29:17.911Z,101986.97
2023-05-20T03:34:20.900Z,101989.63
2023-05-20T03:39:26.242Z,101987.47
2023-05-20T03:44:29.113Z,101933.59
2023-05-20T03:49:32.139Z,101978.03
2023-05-20T03:54:36.850Z,101983.81
2023-05-20T03:59:40.491Z,101951.00
2023-05-20T04:04:44.203Z,101918.78
2023-05-20T04:09:48.246Z,101944.72
2023-05-20T04:14:52.665Z,101882.50
2023-05-20T04:19:56.322Z,101979.50
2023-05-20T04:25:00.498Z,101925.19
2023-05-20T04:30:04.062Z,101909.88
2023-05-20T04:35:12.237Z,101989.66
2023-05-20T04:40:20.962Z,101971.94
2023-05-20T04:45:24.560Z,101992.56
2023-05-20T04:50:27.359Z,101990.25
2023-05-20T04:55:32.366Z,101872.28
2023-05-20T05:00:35.847Z,101957.75
2023-05-20T05:05:39.273Z,101977.22
2023-05-20T05:10:43.916Z,101924.91
2023-05-20T05:15:47.313Z,101934.06
2023-05-20T05:20:50.184Z,101973.09
2023-05-20T05:25:56.922Z,101959.28
2023-05-20T05:31:00.940Z,101962.41
2023-05-20T05:36:05.480Z,101921.97
2023-05-20T05:41:09.941Z,101955.53
2023-05-20T05:46:16.442Z,101927.69
2023-05-20T05:51:19.853Z,101951.44
2023-05-20T05:56:25.774Z,101941.53
2023-05-20T06:01:30.745Z,101943.31
2023-05-20T06:06:33.646Z,101864.84
2023-05-20T06:11:37.734Z,101941.59
2023-05-20T06:16:40.518Z,101689.31
2023-05-20T06:21:44.304Z,101929.91
2023-05-20T06:26:52.797Z,101918.06
2023-05-20T06:31:55.601Z,101788.22
2023-05-20T06:36:59.789Z,101743.16
2023-05-20T06:42:04.055Z,101904.34
2023-05-20T06:47:11.696Z,101904.25
2023-05-20T06:52:14.670Z,101666.47
2023-05-20T06:57:19.678Z,101879.19
2023-05-20T07:02:22.966Z,101898.09
2023-05-20T07:07:26.036Z,101718.59
2023-05-20T07:12:30.527Z,101815.03
2023-05-20T07:17:33.616Z,101894.34
2023-05-20T07:22:36.736Z,101839.56
2023-05-20T07:27:53.787Z,101830.25
2023-05-20T07:32:58.982Z,101800.16
2023-05-20T07:38:03.424Z,101807.88
2023-05-20T07:43:10.685Z,101864.78
2023-05-20T07:48:15.024Z,101867.84
2023-05-20T07:53:18.174Z,101869.06
2023-05-20T07:58:33.786Z,101800.06
2023-05-20T08:03:42.472Z,101613.75
2023-05-20T08:08:51.604Z,101659.97
2023-05-20T08:14:00.334Z,101859.69
2023-05-20T08:19:08.061Z,101864.19
2023-05-20T08:24:11.254Z,101849.84
2023-05-20T08:29:20.195Z,101810.84
2023-05-20T08:34:23.282Z,101855.03
2023-05-20T08:39:27.334Z,101800.66
2023-05-20T08:44:35.029Z,101704.75
2023-05-20T08:49:38.264Z,101848.34
2023-05-20T08:54:48.723Z,101660.66
2023-05-20T08:59:53.070Z,101848.50
2023-05-20T09:04:56.000Z,101860.69
2023-05-20T09:09:59.275Z,101851.84
2023-05-20T09:15:03.690Z,101860.84
2023-05-20T09:20:10.831Z,101832.00
2023-05-20T09:25:16.051Z,101845.22
2023-05-20T09:30:21.896Z,101837.22
2023-05-20T09:35:25.330Z,101859.47
2023-05-20T09:40:29.853Z,101851.41
2023-05-20T09:45:34.327Z,101857.94
2023-05-20T09:50:47.971Z,101845.56
2023-05-20T10:01:15.308Z,101828.09
2023-05-20T10:07:42.103Z,101722.38
2023-05-20T10:12:54.030Z,101868.47
2023-05-20T10:18:24.151Z,101870.19
2023-05-20T10:23:41.244Z,101841.66
2023-05-20T10:28:44.582Z,101820.47
2023-05-20T10:33:49.520Z,101839.16
2023-05-20T10:38:59.753Z,101810.00
2023-05-20T10:44:24.497Z,101850.03
2023-05-20T10:49:35.111Z,101503.06
2023-05-20T10:54:43.852Z,101845.38
2023-05-20T10:59:48.086Z,101832.16
2023-05-20T11:04:52.165Z,101792.41
2023-05-20T11:09:57.904Z,101804.03
2023-05-20T11:15:02.790Z,101827.09
2023-05-20T11:20:10.267Z,101822.50
2023-05-20T11:25:13.139Z,101821.06
2023-05-20T11:30:18.451Z,101777.84
2023-05-20T11:35:27.350Z,101802.03
2023-05-20T11:40:38.868Z,101802.78
2023-05-20T11:45:47.150Z,101804.78
2023-05-20T11:50:51.258Z,101807.34
2023-05-20T11:55:56.929Z,101780.81
2023-05-20T12:01:09.599Z,101791.06
2023-05-20T12:06:24.052Z,101766.19
2023-05-20T12:11:26.843Z,101746.94
2023-05-20T12:16:29.597Z,101763.50
2023-05-20T12:21:33.643Z,101707.59
2023-05-20T12:26:36.502Z,101698.53
2023-05-20T12:31:39.421Z,101743.72
2023-05-20T12:36:46.292Z,101670.03
2023-05-20T12:41:49.011Z,101739.69
2023-05-20T12:47:28.655Z,101729.50
2023-05-20T12:52:34.256Z,101629.28
2023-05-20T12:57:40.465Z,101674.69
2023-05-20T13:03:03.151Z,101658.94
2023-05-20T13:08:08.897Z,101729.47
2023-05-20T13:13:21.148Z,101648.53
2023-05-20T13:18:26.208Z,101684.88
2023-05-20T13:23:47.957Z,101687.00
2023-05-20T13:28:55.568Z,101559.28
2023-05-20T13:34:00.439Z,101490.28
2023-05-20T13:39:04.760Z,101658.25
2023-05-20T13:44:11.983Z,101680.56
2023-05-20T13:49:23.504Z,101596.72
2023-05-20T13:54:32.631Z,101269.78
2023-05-20T13:59:46.630Z,101641.06
2023-05-20T14:05:09.292Z,101364.94
2023-05-20T14:15:57.292Z,101319.75
2023-05-20T14:21:07.779Z,101650.38
2023-05-20T14:26:15.415Z,101545.44
2023-05-20T14:31:18.860Z,101640.44
2023-05-20T14:36:22.222Z,101629.41
2023-05-20T14:41:26.230Z,101635.41
2023-05-20T14:46:29.023Z,101632.31
2023-05-20T14:51:33.550Z,101613.19
2023-05-20T14:56:39.489Z,101576.91
2023-05-20T15:01:42.233Z,101577.84
2023-05-20T15:06:45.013Z,101585.34
2023-05-20T15:11:49.034Z,101621.22
2023-05-20T15:16:51.772Z,101616.28
2023-05-20T15:21:54.960Z,101625.66
2023-05-20T15:27:05.746Z,101617.59
2023-05-20T15:32:08.888Z,101618.03
2023-05-20T15:37:11.629Z,101587.56
2023-05-20T15:42:18.105Z,101584.22
2023-05-20T15:47:21.326Z,101526.44
2023-05-20T15:52:24.061Z,101616.63
2023-05-20T15:57:29.193Z,101615.66
2023-05-20T16:02:34.836Z,101615.78
2023-05-20T16:07:39.132Z,101600.97
2023-05-20T16:12:43.261Z,101595.19
2023-05-20T16:17:46.037Z,101603.53
2023-05-20T16:22:48.929Z,101576.22
2023-05-20T16:27:53.374Z,101576.53
2023-05-20T16:32:58.040Z,101599.03
2023-05-20T16:38:00.785Z,101581.75
2023-05-20T16:43:04.804Z,101602.28
2023-05-20T16:48:07.582Z,101581.69
2023-05-20T16:53:10.238Z,101483.25
2023-05-20T16:58:15.727Z,101611.81
2023-05-20T17:03:18.569Z,101611.78
2023-05-20T17:08:21.688Z,101607.09
2023-05-20T17:13:25.776Z,101615.56
2023-05-20T17:18:28.962Z,101622.59
2023-05-20T17:23:31.693Z,101621.44
2023-05-20T17:28:35.771Z,101522.06
2023-05-20T17:33:38.600Z,101640.69
2023-05-20T17:38:41.431Z,101641.34
2023-05-20T17:44:01.624Z,101480.94
2023-05-20T17:49:04.473Z,101630.56
2023-05-20T17:54:07.206Z,101635.09
2023-05-20T17:59:11.484Z,101619.09
2023-05-20T18:04:14.506Z,101631.84
2023-05-20T18:09:17.291Z,101628.56
2023-05-20T18:14:22.734Z,101614.06
2023-05-20T18:19:26.194Z,101621.00
2023-05-20T18:24:29.096Z,101598.78
2023-05-20T18:29:33.079Z,101625.31
2023-05-20T18:34:36.184Z,101629.97
2023-05-20T18:39:39.004Z,101611.06
2023-05-20T18:44:43.303Z,101632.91
2023-05-20T18:49:51.185Z,101634.94
2023-05-20T18:54:53.829Z,101617.22
2023-05-20T18:59:57.989Z,101640.16
2023-05-20T19:05:00.814Z,101643.88
2023-05-20T19:10:04.229Z,101644.63
2023-05-20T19:15:12.886Z,101659.59
2023-05-20T19:20:23.636Z,101622.88
2023-05-20T19:25:26.837Z,101643.34
2023-05-20T19:30:32.357Z,101634.22
2023-05-20T19:35:38.946Z,101646.78
2023-05-20T19:40:45.002Z,101627.44
2023-05-20T19:45:53.798Z,101585.31
2023-05-20T19:50:59.610Z,101638.03
2023-05-20T19:56:02.488Z,101452.59
2023-05-20T20:01:08.947Z,101635.00
2023-05-20T20:06:11.889Z,101643.56
2023-05-20T20:11:14.583Z,101590.72
2023-05-20T20:16:19.457Z,101650.75
2023-05-20T20:21:25.519Z,101641.88
2023-05-20T20:26:30.481Z,101660.75
2023-05-20T20:31:35.026Z,101649.69
2023-05-20T20:36:39.580Z,101600.84
2023-05-20T20:41:45.081Z,101625.13
2023-05-20T20:46:50.691Z,101582.47
2023-05-20T20:51:54.153Z,101625.25
2023-05-20T20:56:57.306Z,101637.66
2023-05-20T21:02:01.569Z,101633.03
2023-05-20T21:07:07.119Z,101613.47
2023-05-20T21:12:09.806Z,101572.38
2023-05-20T21:17:15.837Z,101631.13
2023-05-20T21:22:18.587Z,101620.44
2023-05-20T21:27:21.273Z,101624.41
2023-05-20T21:32:25.906Z,101616.97
2023-05-20T21:37:29.052Z,101624.75
2023-05-20T21:42:32.504Z,101607.25
2023-05-20T21:47:37.185Z,101564.22
2023-05-20T21:52:40.672Z,101579.53
2023-05-20T21:57:43.467Z,101598.25
2023-05-20T22:02:50.685Z,101595.69
2023-05-20T22:07:54.539Z,101565.88
2023-05-20T22:12:58.227Z,101580.72
2023-05-20T22:18:06.748Z,101579.97
2023-05-20T22:23:10.405Z,101576.31
2023-05-20T22:28:13.106Z,101569.00
2023-05-20T22:33:17.811Z,101572.78
2023-05-20T22:38:21.059Z,101554.84
2023-05-20T22:43:24.667Z,101560.47
2023-05-20T22:48:28.854Z,101552.78
2023-05-20T22:53:31.567Z,101545.00
2023-05-20T22:58:39.364Z,101507.47
2023-05-20T23:03:44.166Z,101526.03
2023-05-20T23:08:47.319Z,101534.28
2023-05-20T23:13:51.487Z,101523.56
2023-05-20T23:18:56.356Z,101467.63
2023-05-20T23:23:59.064Z,101523.91
2023-05-20T23:29:01.950Z,101530.97
2023-05-20T23:34:08.567Z,101493.56
2023-05-20T23:39:11.414Z,101494.81
2023-05-20T23:44:14.195Z,101489.53
2023-05-20T23:49:22.419Z,101478.81
2023-05-20T23:54:25.486Z,101484.53
2023-05-20T23:59:28.159Z,101487.84
